Data for 11/05/2017

Time Sea-Level Adjusted Pressure Absolute Pressure Temperature Relative Humidity Dew Point   
(mb) (inHg) (mb) (inHg) (C) (F) (%) (C) (F)
00:05 1012 29.88 842 24.86 -4.9 23.2 73 -9.1 15.7
00:10 1012 29.88 842 24.86 -4.9 23.1 76 -8.6 16.6
00:15 1012 29.88 842 24.86 -5 22.9 76 -8.6 16.6
00:20 1013 29.91 842 24.86 -5 22.9 76 -8.7 16.4
00:25 1013 29.91 842 24.86 -5.1 22.9 75 -8.9 16
00:30 1012 29.88 842 24.86 -4.9 23.1 76 -8.6 16.5
00:35 1012 29.88 842 24.86 -4.8 23.3 76 -8.5 16.8
00:40 1012 29.88 842 24.86 -4.7 23.5 76 -8.3 17.1
00:45 1012 29.88 842 24.86 -4.6 23.6 78 -7.9 17.8
00:50 1012 29.88 842 24.86 -4.7 23.6 80 -7.7 18.2
00:55 1012 29.88 842 24.86 -4.8 23.4 81 -7.5 18.5
02:00 1012 29.88 842 24.86 -4.7 23.5 83 -7.2 19
02:05 1012 29.88 842 24.86 -4.7 23.5 84 -7 19.4
02:10 1012 29.88 842 24.86 -4.7 23.6 85 -6.8 19.7
02:15 1012 29.88 842 24.86 -4.6 23.7 85 -6.8 19.8
02:20 1012 29.88 841 24.83 -4.6 23.8 85 -6.7 20
02:25 1012 29.88 841 24.83 -4.5 23.9 86 -6.6 20.1
02:30 1012 29.88 841 24.83 -4.5 23.9 85 -6.6 20.2
02:35 1012 29.88 841 24.83 -4.4 24.1 85 -6.5 20.3
02:40 1012 29.88 842 24.86 -4.3 24.2 85 -6.5 20.2
02:45 1012 29.88 842 24.86 -4.3 24.2 85 -6.5 20.3
02:50 1012 29.88 841 24.83 -4.6 23.8 85 -6.7 20
02:55 1012 29.88 841 24.83 -4.6 23.6 85 -6.8 19.8
03:00 1012 29.88 841 24.83 -4.7 23.6 85 -6.8 19.7
03:05 1012 29.88 841 24.83 -4.7 23.6 85 -6.9 19.6
03:10 1012 29.88 842 24.86 -4.7 23.5 85 -7 19.5
03:15 1012 29.88 842 24.86 -5.2 22.6 83 -7.6 18.2
03:20 1012 29.88 842 24.86 -5.6 21.8 83 -8.2 17.3
03:25 1012 29.88 842 24.86 -6.2 20.8 85 -8.4 16.8
03:30 1012 29.88 842 24.86 -6.3 20.7 85 -8.4 16.8
03:35 1012 29.88 842 24.86 -6.3 20.7 84 -8.5 16.7
03:40 1012 29.88 842 24.86 -6.4 20.4 85 -8.6 16.6
03:45 1012 29.88 842 24.86 -6.6 20.2 86 -8.6 16.5
03:50 1012 29.88 842 24.86 -6.6 20.1 86 -8.6 16.5
03:55 1012 29.88 842 24.86 -6.7 19.9 86 -8.7 16.3
04:00 1012 29.88 842 24.86 -6.9 19.5 87 -8.8 16.2
04:05 1012 29.88 842 24.86 -6.9 19.7 87 -8.7 16.3
04:10 1012 29.88 842 24.86 -6.5 20.3 82 -9 15.7
04:15 1012 29.88 841 24.83 -6.6 20.2 83 -9 15.8
04:20 1012 29.88 841 24.83 -6.5 20.3 83 -8.9 15.9
04:25 1012 29.88 841 24.83 -6.5 20.4 83 -8.9 16
04:30 1012 29.88 841 24.83 -6.3 20.7 82 -8.9 15.9
04:35 1012 29.88 841 24.83 -6.2 20.9 81 -9 15.9
04:40 1012 29.88 841 24.83 -6 21.1 82 -8.6 16.4
04:45 1012 29.88 841 24.83 -6 21.2 81 -8.7 16.3
04:50 1012 29.88 841 24.83 -6.1 21 82 -8.7 16.4
04:55 1012 29.88 841 24.83 -6.3 20.6 84 -8.7 16.4
05:00 1012 29.88 841 24.83 -6.4 20.4 86 -8.5 16.7
05:05 1012 29.88 841 24.83 -6.4 20.4 85 -8.6 16.4
05:10 1012 29.88 841 24.83 -6.4 20.5 84 -8.6 16.5
05:15 1012 29.88 841 24.83 -6.4 20.5 84 -8.6 16.5
05:20 1012 29.88 841 24.83 -6.4 20.5 84 -8.7 16.4
05:25 1012 29.88 841 24.83 -6.2 20.8 84 -8.6 16.5
05:30 1012 29.88 841 24.83 -6.1 21.1 84 -8.3 17.1
05:35 1012 29.88 841 24.83 -5.9 21.4 85 -8.1 17.4
05:40 1012 29.88 842 24.86 -5.8 21.6 85 -8 17.6
05:45 1012 29.88 842 24.86 -5.7 21.7 84 -7.9 17.7
05:50 1012 29.88 842 24.86 -5.7 21.8 84 -7.9 17.8
05:55 1012 29.88 842 24.86 -5.6 21.9 84 -7.9 17.8
06:00 1012 29.88 842 24.86 -5.5 22 84 -7.8 17.9
06:05 1012 29.88 842 24.86 -5.4 22.3 83 -7.9 17.8
06:10 1012 29.88 842 24.86 -5.2 22.7 82 -7.7 18.1
06:15 1013 29.91 842 24.86 -5.3 22.4 83 -7.7 18.1
06:20 1013 29.91 842 24.86 -5.4 22.4 83 -7.8 18
06:25 1013 29.91 842 24.86 -5.3 22.4 83 -7.7 18.1
06:30 1013 29.91 842 24.86 -5.3 22.5 83 -7.6 18.3
06:35 1013 29.91 842 24.86 -5.3 22.5 84 -7.5 18.5
06:40 1013 29.91 842 24.86 -5.3 22.5 85 -7.4 18.6
06:45 1013 29.91 842 24.86 -5.3 22.5 86 -7.3 18.9
06:50 1013 29.91 842 24.86 -5.2 22.6 86 -7.2 19
06:55 1013 29.91 842 24.86 -5.2 22.6 86 -7.2 19.1
07:00 1013 29.91 842 24.86 -5.3 22.5 87 -7.2 19.1
07:05 1013 29.91 842 24.86 -5.3 22.5 87 -7.2 19.1
07:10 1013 29.91 842 24.86 -5.2 22.6 88 -6.9 19.5
07:15 1013 29.91 842 24.86 -5.1 22.8 88 -6.9 19.6
07:20 1012 29.88 842 24.86 -5.2 22.6 88 -6.9 19.5
07:25 1012 29.88 842 24.86 -5.4 22.2 88 -7.1 19.2
07:30 1012 29.88 842 24.86 -5.5 22 88 -7.2 19
07:35 1012 29.88 842 24.86 -5.7 21.7 89 -7.3 18.9
07:40 1012 29.88 842 24.86 -5.8 21.6 89 -7.3 18.9
07:45 1012 29.88 842 24.86 -5.7 21.8 89 -7.2 19.1
07:50 1012 29.88 842 24.86 -5.6 21.9 89 -7.2 19.1
07:55 1012 29.88 842 24.86 -5.4 22.3 88 -7.1 19.2
08:00 1012 29.88 842 24.86 -5.4 22.2 87 -7.3 18.8
08:05 1012 29.88 842 24.86 -5.8 21.6 88 -7.5 18.5
08:10 1012 29.88 842 24.86 -6 21.3 88 -7.6 18.3
08:15 1012 29.88 842 24.86 -6.1 20.9 89 -7.7 18.1
08:20 1012 29.88 842 24.86 -6.2 20.8 89 -7.7 18.1
08:25 1013 29.91 842 24.86 -6.1 21 88 -7.8 18
08:30 1013 29.91 842 24.86 -6.2 20.8 89 -7.8 17.9
08:35 1013 29.91 842 24.86 -6.3 20.7 88 -7.9 17.7
08:40 1013 29.91 842 24.86 -6.3 20.6 87 -8.1 17.4
08:45 1013 29.91 842 24.86 -6.4 20.5 86 -8.3 17
08:50 1013 29.91 842 24.86 -6.1 21 85 -8.3 17.1
08:55 1013 29.91 842 24.86 -5.7 21.8 83 -8.1 17.5
09:00 1013 29.91 842 24.86 -5.5 22.2 82 -8.1 17.4
09:05 1013 29.91 842 24.86 -5.6 21.9 83 -8.2 17.3
09:10 1013 29.91 842 24.86 -5.8 21.6 83 -8.3 17.1
09:15 1013 29.91 842 24.86 -5.7 21.8 81 -8.5 16.7
09:20 1013 29.91 842 24.86 -5.5 22.1 79 -8.6 16.4
09:25 1013 29.91 842 24.86 -5.2 22.6 78 -8.6 16.6
09:30 1013 29.91 842 24.86 -5.2 22.6 76 -8.7 16.3
09:35 1013 29.91 842 24.86 -5.3 22.5 76 -8.9 15.9
09:40 1013 29.91 842 24.86 -5.1 22.8 75 -8.9 16.1
09:45 1013 29.91 842 24.86 -4.7 23.5 74 -8.7 16.3
09:50 1013 29.91 842 24.86 -4 24.8 71 -8.4 16.8
09:55 1013 29.91 842 24.86 -3.5 25.7 70 -8.1 17.3
10:00 1013 29.91 842 24.86 -3 26.5 67 -8.3 17
10:05 1013 29.91 842 24.86 -3.1 26.4 69 -8 17.6
10:10 1013 29.91 842 24.86 -2.6 27.3 67 -7.9 17.7
10:15 1013 29.91 842 24.86 -3.1 26.5 70 -7.8 18
10:20 1013 29.91 842 24.86 -4 24.8 73 -8.1 17.4
10:25 1013 29.91 842 24.86 -3.8 25.1 71 -8.3 17.1
10:30 1013 29.91 842 24.86 -3.7 25.3 71 -8.2 17.2
10:35 1013 29.91 842 24.86 -4.1 24.7 73 -8.3 17
10:40 1013 29.91 842 24.86 -3.9 25 71 -8.4 16.9
10:45 1013 29.91 842 24.86 -3 26.5 66 -8.5 16.7
10:50 1013 29.91 842 24.86 -2.6 27.3 66 -8.1 17.4
10:55 1013 29.91 842 24.86 -2.2 28 64 -8.2 17.3
11:00 1013 29.91 842 24.86 -1.8 28.7 65 -7.6 18.2
11:05 1013 29.91 842 24.86 -1.7 28.9 64 -7.7 18.2
11:10 1013 29.91 842 24.86 -2.2 28 65 -7.9 17.8
11:15 1013 29.91 842 24.86 -2.5 27.6 67 -7.8 18
11:20 1013 29.91 842 24.86 -1.9 28.6 63 -8 17.7
11:25 1013 29.91 842 24.86 -0.9 30.3 61 -7.6 18.4
11:30 1013 29.91 842 24.86 -0.5 31.1 60 -7.3 18.8
11:35 1013 29.91 842 24.86 -0.2 31.7 58 -7.5 18.6
11:40 1013 29.91 842 24.86 -0.4 31.2 60 -7.2 19.1
11:45 1013 29.91 842 24.86 -1 30.2 62 -7.5 18.5
11:50 1013 29.91 842 24.86 -0.9 30.4 59 -7.9 17.9
11:55 1013 29.91 842 24.86 -0.8 30.5 59 -7.8 17.9
12:00 1013 29.91 842 24.86 -0.7 30.8 60 -7.6 18.3
12:05 1013 29.91 842 24.86 -1 30.2 62 -7.4 18.8
12:10 1013 29.91 842 24.86 -0.9 30.3 61 -7.6 18.3
12:15 1013 29.91 842 24.86 -0.8 30.6 59 -7.8 17.9
12:20 1013 29.91 842 24.86 -1.2 29.9 62 -7.5 18.4
12:25 1013 29.91 842 24.86 -1.4 29.5 63 -7.5 18.4
12:30 1013 29.91 842 24.86 -2 28.5 64 -7.9 17.7
12:35 1013 29.91 842 24.86 -1.2 29.9 61 -7.8 17.9
12:40 1013 29.91 842 24.86 -1 30.2 61 -7.7 18.2
12:45 1013 29.91 842 24.86 -0.7 30.7 60 -7.6 18.3
12:50 1012 29.88 842 24.86 -0.5 31.1 59 -7.5 18.5
12:55 1012 29.88 842 24.86 -0.3 31.4 59 -7.3 18.8
13:00 1012 29.88 842 24.86 -0.2 31.7 59 -7.2 19.1
13:05 1012 29.88 842 24.86 0.3 32.5 56 -7.4 18.7
13:10 1012 29.88 841 24.83 0.4 32.7 57 -7.1 19.2
13:15 1012 29.88 841 24.83 0.3 32.5 57 -7.3 18.9
13:20 1012 29.88 841 24.83 0 32 60 -6.9 19.5
13:25 1012 29.88 841 24.83 0 32.1 58 -7.3 18.9
13:30 1012 29.88 841 24.83 0.4 32.7 59 -6.7 20
13:35 1012 29.88 841 24.83 0.9 33.6 56 -6.9 19.5
13:40 1012 29.88 841 24.83 0.9 33.7 56 -7 19.4
13:45 1012 29.88 841 24.83 0.6 33.1 58 -6.8 19.8
13:50 1012 29.88 841 24.83 0.6 33.1 58 -6.7 19.9
13:55 1012 29.88 841 24.83 0.6 33.1 57 -6.9 19.6
14:00 1012 29.88 841 24.83 0.3 32.5 59 -6.9 19.6
14:05 1012 29.88 841 24.83 -0 31.9 58 -7.3 18.9
14:10 1012 29.88 841 24.83 -0 31.9 57 -7.6 18.4
14:15 1012 29.88 841 24.83 0.2 32.4 59 -6.9 19.6
14:20 1012 29.88 841 24.83 0.3 32.6 56 -7.4 18.7
14:25 1012 29.88 841 24.83 -0.3 31.5 59 -7.3 18.8
14:30 1012 29.88 841 24.83 -0.3 31.5 59 -7.3 18.9
14:35 1012 29.88 841 24.83 0 32 56 -7.8 18
14:40 1012 29.88 841 24.83 -0.5 31.1 59 -7.5 18.5
14:45 1012 29.88 841 24.83 -0.8 30.7 61 -7.4 18.7
14:50 1012 29.88 841 24.83 -0.5 31 60 -7.3 18.8
14:55 1012 29.88 841 24.83 -0.3 31.5 60 -7.2 19.1
15:00 1012 29.88 841 24.83 -0.2 31.6 60 -7.1 19.3
15:05 1012 29.88 841 24.83 -0.5 31.1 59 -7.5 18.6
15:10 1012 29.88 841 24.83 -0.3 31.4 61 -7 19.4
15:15 1012 29.88 841 24.83 -0.4 31.3 63 -6.5 20.2
15:20 1012 29.88 841 24.83 -0.9 30.4 62 -7.3 18.8
14:25 1012 29.88 841 24.83 -1.9 28.6 68 -7.1 19.3
14:30 1012 29.88 841 24.83 -2.2 28.1 70 -7 19.4
14:35 1012 29.88 841 24.83 -2.4 27.7 68 -7.5 18.5
14:40 1012 29.88 841 24.83 -2.7 27.1 70 -7.5 18.5
14:45 1012 29.88 841 24.83 -3.2 26.2 72 -7.6 18.3
14:50 1012 29.88 842 24.86 -3.4 25.9 71 -8 17.6
14:55 1012 29.88 842 24.86 -2.4 27.7 68 -7.6 18.4
15:00 1013 29.91 842 24.86 -2.1 28.3 66 -7.6 18.3
15:05 1013 29.91 842 24.86 -2.1 28.2 66 -7.6 18.4
15:10 1013 29.91 842 24.86 -2.4 27.7 67 -7.8 18
15:15 1013 29.91 842 24.86 -3 26.7 69 -7.8 17.9
15:20 1013 29.91 842 24.86 -3.2 26.2 69 -8.1 17.4
15:25 1013 29.91 842 24.86 -3 26.6 68 -8.1 17.4
15:30 1013 29.91 842 24.86 -2.9 26.8 66 -8.3 17.1
15:35 1013 29.91 842 24.86 -2.7 27.2 68 -7.7 18.1
15:40 1013 29.91 842 24.86 -2.4 27.7 68 -7.5 18.5
15:45 1013 29.91 842 24.86 -2 28.5 66 -7.5 18.6
15:50 1013 29.91 842 24.86 -2 28.4 64 -7.9 17.7
15:55 1013 29.91 842 24.86 -1.9 28.5 64 -7.9 17.7
16:00 1013 29.91 842 24.86 -1.7 28.9 63 -7.9 17.7
16:05 1013 29.91 842 24.86 -2.2 28.1 64 -8.1 17.4
16:10 1013 29.91 842 24.86 -1.9 28.6 63 -8 17.5
16:15 1013 29.91 842 24.86 -2.1 28.2 64 -8.1 17.4
16:20 1013 29.91 842 24.86 -2.4 27.7 64 -8.3 17.1
16:25 1013 29.91 842 24.86 -2.2 28 64 -8.1 17.4
16:30 1013 29.91 842 24.86 -2.3 27.9 66 -7.9 17.8
16:35 1013 29.91 842 24.86 -2.4 27.6 66 -7.9 17.8
16:40 1013 29.91 842 24.86 -2.8 26.9 69 -7.7 18.2
16:45 1012 29.88 842 24.86 -3 26.6 72 -7.4 18.7
16:50 1012 29.88 842 24.86 -3.5 25.7 73 -7.6 18.2
16:55 1013 29.91 842 24.86 -3.4 25.8 73 -7.6 18.4
17:00 1013 29.91 842 24.86 -3.4 25.8 74 -7.5 18.5
17:05 1013 29.91 842 24.86 -3.5 25.7 74 -7.4 18.6
17:10 1013 29.91 842 24.86 -3.4 25.9 75 -7.2 19.1
17:15 1013 29.91 842 24.86 -3.4 25.8 75 -7.2 19.1
17:20 1013 29.91 842 24.86 -3.5 25.8 75 -7.3 18.9
17:25 1013 29.91 842 24.86 -3.3 26 72 -7.6 18.3
17:30 1013 29.91 842 24.86 -3.3 26.1 73 -7.5 18.4
17:35 1013 29.91 842 24.86 -3.3 26 72 -7.6 18.3
17:40 1013 29.91 842 24.86 -3.4 25.9 74 -7.4 18.7
17:45 1013 29.91 842 24.86 -3.3 26.1 74 -7.3 18.9
17:50 1013 29.91 842 24.86 -3.2 26.2 73 -7.5 18.6
17:55 1013 29.91 842 24.86 -3.3 26.2 75 -7.1 19.2
18:00 1013 29.91 842 24.86 -3.3 26.1 77 -6.8 19.8
18:05 1013 29.91 842 24.86 -3 26.6 75 -6.8 19.8
18:10 1013 29.91 842 24.86 -3.5 25.7 79 -6.6 20.1
18:15 1013 29.91 842 24.86 -4.6 23.7 83 -7.1 19.2
18:20 1013 29.91 842 24.86 -5 23 83 -7.5 18.6
18:25 1013 29.91 842 24.86 -5.1 22.9 83 -7.6 18.4
18:30 1013 29.91 842 24.86 -5.3 22.5 83 -7.7 18.1
18:35 1013 29.91 842 24.86 -5.3 22.4 84 -7.6 18.3
18:40 1013 29.91 842 24.86 -5.2 22.6 84 -7.4 18.6
18:45 1013 29.91 843 24.89 -4.8 23.3 81 -7.6 18.4
18:50 1013 29.91 843 24.89 -4.9 23.1 83 -7.4 18.8
18:55 1013 29.91 843 24.89 -4.7 23.6 81 -7.5 18.6
19:00 1013 29.91 843 24.89 -4.8 23.3 83 -7.4 18.7
19:05 1013 29.91 843 24.89 -5 23 84 -7.4 18.8
19:10 1013 29.91 843 24.89 -5.1 22.8 85 -7.3 18.9
19:15 1013 29.91 843 24.89 -5.4 22.4 87 -7.3 18.9
19:20 1013 29.91 843 24.89 -5.4 22.2 87 -7.3 18.9
19:25 1013 29.91 843 24.89 -5.3 22.4 88 -7.1 19.3
19:30 1013 29.91 843 24.89 -5 23 86 -7 19.4
19:35 1013 29.91 843 24.89 -4.9 23.1 85 -7.1 19.2
19:40 1013 29.91 843 24.89 -5.1 22.8 85 -7.3 18.9
19:45 1013 29.91 843 24.89 -5.2 22.6 85 -7.3 18.8
19:50 1013 29.91 843 24.89 -5.1 22.8 85 -7.3 18.9
19:55 1013 29.91 843 24.89 -5.2 22.6 84 -7.5 18.5
20:00 1013 29.91 843 24.89 -5.5 22.1 84 -7.7 18.1
20:05 1013 29.91 843 24.89 -5.7 21.7 85 -7.9 17.7
20:10 1013 29.91 843 24.89 -5.9 21.3 85 -8.1 17.4
20:15 1013 29.91 843 24.89 -6.1 21 85 -8.2 17.3
20:20 1013 29.91 843 24.89 -6.2 20.9 85 -8.3 17
20:25 1013 29.91 843 24.89 -6.2 20.8 85 -8.4 16.8
20:30 1013 29.91 843 24.89 -6.3 20.6 84 -8.6 16.6
20:35 1013 29.91 843 24.89 -6.5 20.3 84 -8.7 16.3
20:40 1013 29.91 843 24.89 -6.7 19.9 86 -8.7 16.3
20:45 1013 29.91 843 24.89 -6.7 19.9 85 -8.8 16.1
20:50 1013 29.91 843 24.89 -7.1 19.3 87 -8.9 15.9
20:55 1013 29.91 842 24.86 -7.4 18.6 88 -9 15.7
21:00 1013 29.91 842 24.86 -7.6 18.4 89 -9.1 15.6
21:05 1013 29.91 843 24.89 -7.7 18.2 89 -9.2 15.4
21:10 1013 29.91 843 24.89 -7.8 18 90 -9.2 15.4
21:15 1013 29.91 843 24.89 -7.6 18.3 90 -9 15.8
21:20 1014 29.94 843 24.89 -7.5 18.6 89 -9 15.8
21:25 1013 29.91 843 24.89 -7.4 18.7 88 -9.1 15.7
21:30 1014 29.94 843 24.89 -7.4 18.7 88 -9.1 15.6
21:35 1014 29.94 843 24.89 -7.4 18.8 88 -9.1 15.7
21:40 1014 29.94 843 24.89 -7.4 18.7 87 -9.1 15.5
21:45 1014 29.94 843 24.89 -7.5 18.5 87 -9.3 15.3
21:50 1014 29.94 843 24.89 -7.7 18.2 88 -9.4 15.1
21:55 1014 29.94 843 24.89 -7.7 18.1 89 -9.3 15.3
22:00 1014 29.94 843 24.89 -7.5 18.4 88 -9.2 15.5
22:05 1014 29.94 843 24.89 -7.5 18.5 88 -9.1 15.5
22:10 1014 29.94 843 24.89 -7.5 18.5 88 -9.2 15.4
22:15 1014 29.94 843 24.89 -7.6 18.3 88 -9.2 15.4
22:20 1014 29.94 843 24.89 -7.6 18.3 88 -9.2 15.4
22:25 1014 29.94 843 24.89 -7.7 18.1 89 -9.2 15.4
22:30 1014 29.94 843 24.89 -7.9 17.9 89 -9.4 15.2
22:35 1014 29.94 843 24.89 -8.3 17.1 90 -9.7 14.6
22:40 1014 29.94 844 24.92 -8.6 16.5 91 -9.9 14.2
22:45 1014 29.94 844 24.92 -8.6 16.5 92 -9.7 14.5
22:50 1014 29.94 844 24.92 -8.3 17.1 91 -9.5 15
22:55 1014 29.94 844 24.92 -8.1 17.3 90 -9.5 14.9
23:00 1014 29.94 844 24.92 -8.2 17.2 90 -9.5 14.9
23:05 1015 29.97 844 24.92 -8.1 17.4 90 -9.5 14.9
23:10 1015 29.97 844 24.92 -8.5 16.8 90 -9.8 14.4
23:15 1015 29.97 844 24.92 -8.5 16.6 91 -9.8 14.3
23:20 1015 29.97 844 24.92 -8.5 16.7 91 -9.7 14.5
23:25 1015 29.97 844 24.92 -8.4 16.9 90 -9.8 14.4
23:30 1015 29.97 844 24.92 -8.7 16.4 90 -10 14
23:35 1015 29.97 844 24.92 -8.7 16.3 90 -10.1 13.9
23:40 1015 29.97 844 24.92 -8.7 16.3 90 -10.1 13.9
23:45 1015 29.97 844 24.92 -8.7 16.4 90 -10 13.9
23:50 1015 29.97 844 24.92 -8.7 16.4 90 -10.1 13.8
23:55 1015 29.97 844 24.92 -8.7 16.3 90 -10.1 13.7
24:00 1015 29.97 844 24.92 -8.6 16.5 89 -10.1 13.8